Time;durP1;ratioP1;P1;durP2;ratioP2;P2;SDS_P1;SDS_P2;PMS_P1;PMS_P2;Temp;Humidity;BMP_temperature;BMP_pressure;BME280_temperature;BME280_humidity;BME280_pressure;Samples;Min_cycle;Max_cycle;Signal;HPM_P1;HPM_P2
2023/01/01 00:00:05;;;;;;;20.93;17.70;;;15.50;99.90;;;;;;5049520;28;20596;-35
2023/01/01 00:02:32;;;;;;;23.40;17.50;;;15.50;99.90;;;;;;5050096;28;20232;-38
2023/01/01 00:04:57;;;;;;;21.37;14.40;;;15.50;99.90;;;;;;5048269;28;20467;-38
2023/01/01 00:07:23;;;;;;;24.30;14.20;;;15.50;99.90;;;;;;5043962;28;20483;-38
2023/01/01 00:12:34;;;;;;;16.03;13.90;;;15.50;99.90;;;;;;5031270;28;20613;-41
2023/01/01 00:15:00;;;;;;;16.37;13.00;;;15.50;99.90;;;;;;5030773;28;20769;-41
2023/01/01 00:17:27;;;;;;;21.17;13.70;;;15.50;99.90;;;;;;5030165;28;20449;-42
2023/01/01 00:19:53;;;;;;;18.77;13.80;;;15.50;99.90;;;;;;5031251;28;20196;-39
2023/01/01 00:22:19;;;;;;;16.13;13.93;;;15.40;99.90;;;;;;5031181;28;20421;-36
2023/01/01 00:24:44;;;;;;;15.77;13.17;;;15.40;99.90;;;;;;5030676;28;20652;-41
2023/01/01 00:27:10;;;;;;;24.80;14.93;;;15.40;99.90;;;;;;5031471;28;20225;-37
2023/01/01 00:29:35;;;;;;;18.83;13.40;;;15.40;99.90;;;;;;5047424;28;20585;-38
2023/01/01 00:32:01;;;;;;;19.73;14.20;;;15.40;99.90;;;;;;5033520;28;20193;-40
2023/01/01 00:34:27;;;;;;;17.40;14.30;;;15.40;99.90;;;;;;5032769;28;20209;-38
2023/01/01 00:36:52;;;;;;;18.63;14.60;;;15.40;99.90;;;;;;5033694;28;20217;-40
2023/01/01 00:39:18;;;;;;;17.93;15.07;;;15.30;99.90;;;;;;5030847;28;20236;-38
2023/01/01 00:41:43;;;;;;;20.20;14.20;;;15.40;99.90;;;;;;5030864;28;20198;-37
2023/01/01 00:44:09;;;;;;;23.00;15.27;;;15.40;99.90;;;;;;5028827;28;20297;-38
2023/01/01 00:46:35;;;;;;;21.40;15.10;;;15.40;99.90;;;;;;5030549;28;20241;-38
2023/01/01 00:49:00;;;;;;;20.70;15.53;;;15.40;99.90;;;;;;5030674;28;20264;-40
2023/01/01 00:51:26;;;;;;;23.03;15.13;;;15.40;99.90;;;;;;5031131;28;20218;-36
2023/01/01 00:53:52;;;;;;;18.70;15.60;;;15.40;99.90;;;;;;5042873;28;20178;-41
2023/01/01 00:56:17;;;;;;;20.77;17.10;;;15.40;99.90;;;;;;5033658;28;20194;-40
2023/01/01 00:58:43;;;;;;;16.90;15.20;;;15.40;99.90;;;;;;5036798;28;20190;-39
2023/01/01 01:01:09;;;;;;;21.63;16.63;;;15.30;99.90;;;;;;5030025;28;20542;-38
2023/01/01 01:03:37;;;;;;;22.63;15.27;;;15.30;99.90;;;;;;5029939;28;20448;-40
2023/01/01 01:06:03;;;;;;;22.70;15.07;;;15.40;99.90;;;;;;5030310;28;20562;-36
2023/01/01 01:08:31;;;;;;;19.13;14.00;;;15.40;99.90;;;;;;5030463;28;20444;-40
2023/01/01 01:11:03;;;;;;;18.00;13.57;;;15.30;99.90;;;;;;5047591;28;20551;-38
2023/01/01 01:13:29;;;;;;;19.03;13.90;;;15.30;99.90;;;;;;5049380;28;20526;-41
2023/01/01 01:15:55;;;;;;;19.37;13.90;;;15.30;99.90;;;;;;5044640;28;20532;-41
2023/01/01 01:18:20;;;;;;;17.00;13.47;;;15.30;99.90;;;;;;5030368;28;20186;-41
2023/01/01 01:20:51;;;;;;;16.43;13.70;;;15.30;99.90;;;;;;5030074;28;20642;-38
2023/01/01 01:23:18;;;;;;;18.50;13.57;;;15.30;99.90;;;;;;5029849;28;20815;-37
2023/01/01 01:25:44;;;;;;;21.40;13.93;;;15.30;99.90;;;;;;5037894;28;20429;-41
2023/01/01 01:28:09;;;;;;;18.87;13.53;;;15.20;99.90;;;;;;5038164;28;20480;-40
2023/01/01 01:30:39;;;;;;;20.40;14.40;;;15.30;99.90;;;;;;5029941;28;20429;-38
2023/01/01 01:33:05;;;;;;;19.10;13.23;;;15.20;99.90;;;;;;5029491;28;20193;-38
2023/01/01 01:35:32;;;;;;;16.83;11.53;;;15.20;99.90;;;;;;5035546;28;20831;-41
2023/01/01 01:37:58;;;;;;;14.60;10.93;;;15.20;99.90;;;;;;5030049;28;20794;-38
2023/01/01 01:40:23;;;;;;;13.10;10.30;;;15.20;99.90;;;;;;5030067;28;20649;-37
2023/01/01 01:42:50;;;;;;;16.40;10.73;;;15.10;99.90;;;;;;5029399;28;20433;-41
2023/01/01 01:45:16;;;;;;;10.63;7.50;;;15.10;99.90;;;;;;5029445;28;20309;-39
2023/01/01 01:47:49;;;;;;;8.73;6.50;;;15.10;99.90;;;;;;5029601;28;20526;-38
2023/01/01 01:50:29;;;;;;;7.80;6.70;;;15.20;99.80;;;;;;5029594;28;20425;-39
2023/01/01 01:53:08;;;;;;;7.80;6.10;;;15.10;99.30;;;;;;5029187;28;20424;-40
2023/01/01 01:55:38;;;;;;;8.70;5.07;;;15.10;99.20;;;;;;5039278;28;20831;-40
2023/01/01 01:58:06;;;;;;;8.83;5.30;;;15.10;99.50;;;;;;5042120;28;20493;-38
2023/01/01 02:00:32;;;;;;;5.90;4.80;;;15.10;99.00;;;;;;5029568;28;20523;-38
2023/01/01 02:03:06;;;;;;;5.50;4.60;;;15.10;99.20;;;;;;5028960;28;20575;-38
2023/01/01 02:05:34;;;;;;;6.83;4.00;;;15.10;99.20;;;;;;5038793;28;20212;-38
2023/01/01 02:08:02;;;;;;;7.23;4.57;;;15.10;98.90;;;;;;5042661;28;20738;-40
2023/01/01 02:10:28;;;;;;;7.90;3.60;;;15.10;99.10;;;;;;5048346;28;20558;-40
2023/01/01 02:12:54;;;;;;;8.67;3.87;;;15.00;99.00;;;;;;5048246;28;20523;-41
2023/01/01 02:15:24;;;;;;;4.27;2.77;;;15.00;99.10;;;;;;5048117;28;20990;-39
2023/01/01 02:17:59;;;;;;;15.50;3.87;;;15.00;98.90;;;;;;5028413;28;20440;-38
2023/01/01 02:20:55;;;;;;;5.07;2.67;;;15.00;98.50;;;;;;5029206;28;20798;-36
2023/01/01 02:23:29;;;;;;;4.20;2.70;;;15.00;98.70;;;;;;5020702;28;20888;-36
2023/01/01 02:26:37;;;;;;;4.50;2.70;;;15.00;98.80;;;;;;5035195;28;20436;-38
2023/01/01 02:29:36;;;;;;;3.90;2.60;;;15.00;98.60;;;;;;5035729;28;20778;-41
2023/01/01 02:32:11;;;;;;;4.57;2.50;;;14.90;98.80;;;;;;5029022;28;20551;-39
2023/01/01 02:35:32;;;;;;;6.00;2.50;;;14.90;98.60;;;;;;5032193;28;20411;-39
2023/01/01 02:37:46;;;;;;;6.37;2.40;;;14.90;98.50;;;;;;5028765;28;20780;-40
2023/01/01 02:40:12;;;;;;;4.20;3.40;;;14.90;98.50;;;;;;5028577;28;20429;-40
2023/01/01 02:42:37;;;;;;;4.20;2.97;;;14.90;98.50;;;;;;5027536;28;20480;-41
2023/01/01 02:45:06;;;;;;;3.80;1.80;;;14.90;98.50;;;;;;5027788;28;20209;-40
2023/01/01 02:47:31;;;;;;;5.53;1.83;;;14.90;98.50;;;;;;5028705;28;20261;-40
2023/01/01 02:50:07;;;;;;;4.03;2.33;;;14.90;98.60;;;;;;5028356;28;20671;-39
2023/01/01 02:52:53;;;;;;;3.30;2.30;;;14.90;98.50;;;;;;5037535;28;20545;-36
2023/01/01 02:55:36;;;;;;;5.07;2.53;;;14.90;98.80;;;;;;5041883;28;20511;-37
2023/01/01 03:01:32;;;;;;;4.80;2.03;;;14.80;98.50;;;;;;5020596;28;20817;-41
2023/01/01 03:04:13;;;;;;;3.13;2.00;;;14.80;98.60;;;;;;5027312;28;20731;-38
2023/01/01 03:06:57;;;;;;;8.33;2.30;;;14.80;98.80;;;;;;5028454;28;20463;-36
2023/01/01 03:09:36;;;;;;;4.30;1.83;;;14.80;98.90;;;;;;5028439;28;20426;-38
2023/01/01 03:12:13;;;;;;;4.13;2.03;;;14.80;98.80;;;;;;5028442;28;20717;-38
2023/01/01 03:14:39;;;;;;;3.07;2.13;;;14.80;98.80;;;;;;5035534;28;20527;-38
2023/01/01 03:17:30;;;;;;;4.57;1.40;;;14.80;99.10;;;;;;5047016;28;20495;-39
2023/01/01 03:20:01;;;;;;;3.60;2.00;;;14.80;99.10;;;;;;5045790;28;20542;-40
2023/01/01 03:22:32;;;;;;;3.03;2.30;;;14.80;98.90;;;;;;5049077;28;20510;-38
2023/01/01 03:25:06;;;;;;;7.27;2.10;;;14.80;99.00;;;;;;5051741;28;20420;-40
2023/01/01 03:28:16;;;;;;;3.30;2.30;;;14.70;98.90;;;;;;5050756;28;20459;-38
2023/01/01 03:30:46;;;;;;;3.40;2.30;;;14.70;99.00;;;;;;5012905;28;20942;-39
2023/01/01 03:33:21;;;;;;;3.03;1.90;;;14.70;99.10;;;;;;5048671;28;20429;-41
2023/01/01 03:36:12;;;;;;;4.40;2.70;;;14.70;99.10;;;;;;5052231;28;20431;-41
2023/01/01 03:38:51;;;;;;;2.70;1.67;;;14.70;99.30;;;;;;5042192;28;20538;-38
2023/01/01 03:41:47;;;;;;;6.87;2.07;;;14.60;99.20;;;;;;5052142;28;20470;-41
2023/01/01 03:44:33;;;;;;;3.60;1.60;;;14.60;99.20;;;;;;5051143;28;20420;-40
2023/01/01 03:47:00;;;;;;;2.90;1.90;;;14.70;99.40;;;;;;5050966;28;20482;-38
2023/01/01 03:49:27;;;;;;;3.50;1.90;;;14.60;99.40;;;;;;5050491;28;20416;-40
2023/01/01 03:52:11;;;;;;;3.30;3.00;;;14.60;99.40;;;;;;5052300;28;20423;-38
2023/01/01 03:54:55;;;;;;;2.83;1.87;;;14.70;99.70;;;;;;5050058;28;20818;-41
2023/01/01 03:57:43;;;;;;;2.00;1.63;;;14.70;99.70;;;;;;5048417;28;21210;-38
2023/01/01 04:00:15;;;;;;;5.80;1.67;;;14.70;99.60;;;;;;5045547;28;20432;-36
2023/01/01 04:03:01;;;;;;;2.20;2.00;;;14.70;99.80;;;;;;5051767;28;20841;-39
2023/01/01 04:05:29;;;;;;;2.10;1.57;;;14.60;99.90;;;;;;5043634;28;20431;-40
2023/01/01 04:07:55;;;;;;;4.33;1.60;;;14.70;99.90;;;;;;5050154;28;20559;-37
2023/01/01 04:10:23;;;;;;;5.40;1.67;;;14.60;99.80;;;;;;5042664;28;20427;-40
2023/01/01 04:12:54;;;;;;;2.50;1.97;;;14.60;99.90;;;;;;5050981;28;20435;-38
2023/01/01 04:15:23;;;;;;;3.60;1.70;;;14.60;99.90;;;;;;5050673;28;20981;-40
2023/01/01 04:17:49;;;;;;;3.27;2.20;;;14.60;99.90;;;;;;5050325;28;20415;-41
2023/01/01 04:20:15;;;;;;;3.83;1.70;;;14.70;99.90;;;;;;5047442;28;20590;-41
2023/01/01 04:22:41;;;;;;;2.83;1.90;;;14.60;99.90;;;;;;5051139;28;20423;-41
2023/01/01 04:25:07;;;;;;;2.30;1.30;;;14.60;99.90;;;;;;5050657;28;20428;-39
2023/01/01 04:27:33;;;;;;;2.93;1.83;;;14.60;99.90;;;;;;5051159;28;21017;-39
2023/01/01 04:29:59;;;;;;;4.23;2.00;;;14.60;99.90;;;;;;5051404;28;20420;-39
2023/01/01 04:32:24;;;;;;;2.87;1.50;;;14.70;99.90;;;;;;5051052;28;20235;-40
2023/01/01 04:34:50;;;;;;;6.33;1.70;;;14.60;99.90;;;;;;5049146;28;20173;-41
2023/01/01 04:37:16;;;;;;;2.60;1.70;;;14.70;99.90;;;;;;5045999;28;20192;-41
2023/01/01 04:39:42;;;;;;;3.23;1.90;;;14.70;99.90;;;;;;5050716;28;20190;-41
2023/01/01 04:42:08;;;;;;;3.93;1.50;;;14.60;99.90;;;;;;5051017;28;20772;-41
2023/01/01 04:44:33;;;;;;;3.70;1.70;;;14.70;99.90;;;;;;5050449;28;20248;-38
2023/01/01 04:46:59;;;;;;;3.10;1.37;;;14.70;99.90;;;;;;5050905;28;20452;-36
2023/01/01 04:49:25;;;;;;;2.60;1.43;;;14.60;99.90;;;;;;5051035;28;20204;-38
2023/01/01 04:51:50;;;;;;;4.97;1.80;;;14.70;99.90;;;;;;5051234;28;20670;-35
2023/01/01 04:54:16;;;;;;;6.73;1.90;;;14.70;99.90;;;;;;5049785;28;20189;-36
2023/01/01 04:56:41;;;;;;;4.80;1.70;;;14.70;99.90;;;;;;5050817;28;20182;-41
2023/01/01 04:59:07;;;;;;;6.63;1.57;;;14.70;99.90;;;;;;5049042;28;20185;-41
2023/01/01 05:01:33;;;;;;;8.10;2.10;;;14.70;99.90;;;;;;5051073;28;20189;-41
2023/01/01 05:04:00;;;;;;;4.03;1.63;;;14.60;99.90;;;;;;5049778;28;20280;-41
2023/01/01 05:06:27;;;;;;;3.63;1.83;;;14.60;99.90;;;;;;5048189;28;20265;-36
2023/01/01 05:08:54;;;;;;;2.27;1.70;;;14.70;99.90;;;;;;5041980;28;20451;-41
2023/01/01 05:11:25;;;;;;;5.87;1.97;;;14.70;99.90;;;;;;5050457;28;20412;-40
2023/01/01 05:13:52;;;;;;;6.93;1.80;;;14.60;99.90;;;;;;5049626;28;20408;-41
2023/01/01 05:16:24;;;;;;;3.00;1.40;;;14.60;99.90;;;;;;5048883;28;20424;-40
2023/01/01 05:18:50;;;;;;;3.90;1.77;;;14.60;99.90;;;;;;5050014;28;20857;-39
2023/01/01 05:21:18;;;;;;;4.20;2.47;;;14.60;99.90;;;;;;5050350;28;20453;-38
2023/01/01 05:23:44;;;;;;;2.90;1.80;;;14.60;99.90;;;;;;5047893;28;20413;-38
2023/01/01 05:26:18;;;;;;;3.10;2.00;;;14.60;99.90;;;;;;5050415;28;20462;-38
2023/01/01 05:28:45;;;;;;;3.87;1.90;;;14.60;99.90;;;;;;5050321;28;20417;-39
2023/01/01 05:31:14;;;;;;;3.63;1.63;;;14.60;99.90;;;;;;5050070;28;20401;-36
2023/01/01 05:33:40;;;;;;;4.07;2.10;;;14.60;99.90;;;;;;5049372;28;20838;-40
2023/01/01 05:36:09;;;;;;;4.33;1.50;;;14.60;99.90;;;;;;5049591;28;20946;-38
2023/01/01 05:38:35;;;;;;;4.10;2.07;;;14.60;99.90;;;;;;5050120;28;20418;-35
2023/01/01 05:41:08;;;;;;;2.30;1.50;;;14.60;99.90;;;;;;5044248;28;20425;-39
2023/01/01 05:43:34;;;;;;;5.33;1.80;;;14.50;99.90;;;;;;5049097;28;20420;-39
2023/01/01 05:46:11;;;;;;;4.57;1.90;;;14.60;99.90;;;;;;5049507;28;20930;-38
2023/01/01 05:48:37;;;;;;;2.10;1.90;;;14.60;99.90;;;;;;5049425;28;20463;-39
2023/01/01 05:51:05;;;;;;;5.87;2.03;;;14.60;99.90;;;;;;5048198;28;20439;-40
2023/01/01 05:53:31;;;;;;;3.33;1.97;;;14.60;99.90;;;;;;5047509;28;20947;-37
2023/01/01 05:55:58;;;;;;;4.67;1.80;;;14.60;99.90;;;;;;5049521;28;20443;-40
2023/01/01 05:58:24;;;;;;;4.93;2.33;;;14.60;99.90;;;;;;5049788;28;20919;-38
2023/01/01 06:00:49;;;;;;;6.40;2.10;;;14.60;99.90;;;;;;5049516;28;20496;-38
2023/01/01 06:03:15;;;;;;;4.23;1.83;;;14.60;99.90;;;;;;5049041;28;20193;-39
2023/01/01 06:05:40;;;;;;;5.13;1.93;;;14.60;99.90;;;;;;5049255;28;20205;-39
2023/01/01 06:08:06;;;;;;;7.20;1.50;;;14.60;99.90;;;;;;5049227;28;20271;-36
2023/01/01 06:10:32;;;;;;;2.53;1.50;;;14.60;99.90;;;;;;5045722;28;20196;-41
2023/01/01 06:12:57;;;;;;;2.60;1.63;;;14.60;99.90;;;;;;5048806;28;20185;-38
2023/01/01 06:15:24;;;;;;;3.97;1.90;;;14.60;99.90;;;;;;5044224;28;20687;-38
2023/01/01 06:17:50;;;;;;;2.80;1.50;;;14.50;99.90;;;;;;5042401;28;20200;-40
2023/01/01 06:20:16;;;;;;;2.13;1.80;;;14.50;99.90;;;;;;5048943;28;20433;-38
2023/01/01 06:22:41;;;;;;;2.60;1.50;;;14.50;99.90;;;;;;5049137;28;20558;-38
2023/01/01 06:25:08;;;;;;;5.73;2.33;;;14.50;99.90;;;;;;5048461;28;20182;-36
2023/01/01 06:27:37;;;;;;;3.87;1.90;;;14.40;99.90;;;;;;5048723;28;20202;-37
2023/01/01 06:30:04;;;;;;;3.10;1.87;;;14.50;99.90;;;;;;5048898;28;20420;-36
2023/01/01 06:32:30;;;;;;;3.20;1.70;;;14.50;99.90;;;;;;5049138;28;20848;-42
2023/01/01 06:34:56;;;;;;;3.63;2.03;;;14.40;99.90;;;;;;5048305;28;20416;-41
2023/01/01 06:37:22;;;;;;;2.93;1.63;;;14.40;99.90;;;;;;5044456;28;20931;-38
2023/01/01 06:39:47;;;;;;;2.33;2.03;;;14.40;99.90;;;;;;5048625;28;20252;-38
2023/01/01 06:42:13;;;;;;;4.17;2.10;;;14.40;99.90;;;;;;5049079;28;20192;-37
2023/01/01 06:44:39;;;;;;;3.93;2.23;;;14.40;99.90;;;;;;5047593;28;20273;-35
2023/01/01 06:47:04;;;;;;;2.87;1.90;;;14.40;99.90;;;;;;5048592;28;20517;-38
2023/01/01 06:49:30;;;;;;;2.73;1.37;;;14.40;99.90;;;;;;5048898;28;20173;-39
2023/01/01 06:51:56;;;;;;;8.10;1.90;;;14.40;99.90;;;;;;5048196;28;20737;-41
2023/01/01 06:54:21;;;;;;;5.80;1.87;;;14.40;99.90;;;;;;5047950;28;20231;-38
2023/01/01 06:56:48;;;;;;;3.60;1.63;;;14.40;99.90;;;;;;5048153;28;20503;-39
2023/01/01 06:59:15;;;;;;;6.27;2.57;;;14.40;99.90;;;;;;5048221;28;20204;-37
2023/01/01 07:01:40;;;;;;;5.53;2.30;;;14.40;99.90;;;;;;5047527;28;20483;-39
2023/01/01 07:04:12;;;;;;;3.20;2.00;;;14.40;99.90;;;;;;5043784;28;20448;-38
2023/01/01 07:06:38;;;;;;;2.63;2.03;;;14.40;99.90;;;;;;5048208;28;20201;-39
2023/01/01 07:09:05;;;;;;;3.20;2.10;;;14.40;99.90;;;;;;5046763;28;20432;-41
2023/01/01 07:11:30;;;;;;;5.60;2.23;;;14.40;99.90;;;;;;5043872;28;20438;-37
2023/01/01 07:13:56;;;;;;;3.90;2.00;;;14.40;99.90;;;;;;5047282;28;20432;-38
2023/01/01 07:16:23;;;;;;;3.40;1.70;;;14.40;99.90;;;;;;5047150;28;20653;-41
2023/01/01 07:18:49;;;;;;;2.43;1.83;;;14.40;99.90;;;;;;5048150;28;20291;-40
2023/01/01 07:21:31;;;;;;;1.80;1.30;;;14.40;99.90;;;;;;5048532;28;20436;-40
2023/01/01 07:23:58;;;;;;;4.67;2.00;;;14.30;99.90;;;;;;5047534;28;20412;-41
2023/01/01 07:26:28;;;;;;;3.90;1.77;;;14.30;99.90;;;;;;5047874;28;20934;-39
2023/01/01 07:28:54;;;;;;;4.73;2.10;;;14.30;99.90;;;;;;5048289;28;20419;-39
2023/01/01 07:31:20;;;;;;;4.00;2.03;;;14.20;99.90;;;;;;5048327;28;20830;-41
2023/01/01 07:33:46;;;;;;;3.50;1.97;;;14.30;99.90;;;;;;5047523;28;20450;-40
2023/01/01 07:36:11;;;;;;;7.87;2.00;;;14.20;99.90;;;;;;5048065;28;20420;-38
2023/01/01 07:38:37;;;;;;;3.77;1.30;;;14.30;99.90;;;;;;5046824;28;20524;-41
2023/01/01 07:41:03;;;;;;;2.43;1.63;;;14.20;99.90;;;;;;5047924;28;20827;-40
2023/01/01 07:43:28;;;;;;;3.73;1.73;;;14.20;99.90;;;;;;5047679;28;20217;-37
2023/01/01 07:45:54;;;;;;;4.17;2.23;;;14.20;99.90;;;;;;5048148;28;20197;-35
2023/01/01 07:48:20;;;;;;;2.33;1.77;;;14.20;99.90;;;;;;5047981;28;20418;-36
2023/01/01 07:50:45;;;;;;;3.00;1.83;;;14.10;99.90;;;;;;5047870;28;20181;-36
2023/01/01 07:53:11;;;;;;;6.03;2.10;;;14.10;99.90;;;;;;5047723;28;20649;-40
2023/01/01 07:55:37;;;;;;;3.67;2.00;;;14.10;99.90;;;;;;5047858;28;20186;-36
2023/01/01 07:58:02;;;;;;;2.80;1.60;;;14.10;99.90;;;;;;5042301;28;20198;-41
2023/01/01 08:00:28;;;;;;;4.43;1.80;;;14.10;99.90;;;;;;5044753;28;20189;-40
2023/01/01 08:02:54;;;;;;;2.37;1.97;;;14.00;99.90;;;;;;5047760;28;20189;-41
2023/01/01 08:05:19;;;;;;;5.00;1.73;;;14.00;99.90;;;;;;5047123;28;20284;-39
2023/01/01 08:07:49;;;;;;;3.00;1.83;;;14.00;99.90;;;;;;5047960;28;20237;-39
2023/01/01 08:10:17;;;;;;;3.63;2.00;;;14.00;99.90;;;;;;5051590;28;20178;-37
2023/01/01 08:12:43;;;;;;;4.07;2.50;;;14.00;99.90;;;;;;5047567;28;20680;-37
2023/01/01 08:15:09;;;;;;;3.83;2.20;;;13.90;99.90;;;;;;5049095;28;20416;-38
2023/01/01 08:17:35;;;;;;;4.70;1.60;;;13.90;99.90;;;;;;5030766;28;20248;-35
2023/01/01 08:20:01;;;;;;;6.53;2.33;;;13.90;99.90;;;;;;5031241;28;20449;-40
2023/01/01 08:22:27;;;;;;;5.73;1.87;;;13.90;99.90;;;;;;5031607;28;20499;-39
2023/01/01 08:24:52;;;;;;;3.83;1.97;;;13.90;99.90;;;;;;5030711;28;20236;-38
2023/01/01 08:27:18;;;;;;;3.67;2.00;;;13.90;99.90;;;;;;5031441;28;20285;-35
2023/01/01 08:29:44;;;;;;;3.77;2.27;;;13.90;99.90;;;;;;5031415;28;20265;-39
2023/01/01 08:32:11;;;;;;;5.23;2.40;;;14.00;99.90;;;;;;5031372;28;20181;-37
2023/01/01 08:34:36;;;;;;;5.90;1.90;;;13.90;99.90;;;;;;5034470;28;20424;-40
2023/01/01 08:37:03;;;;;;;3.43;1.77;;;14.00;99.90;;;;;;5046903;28;20710;-36
2023/01/01 08:39:28;;;;;;;4.10;2.40;;;13.90;99.90;;;;;;5050739;28;20197;-38
2023/01/01 08:41:54;;;;;;;3.40;1.77;;;13.90;99.90;;;;;;5051073;28;20744;-38
2023/01/01 08:44:20;;;;;;;3.20;1.87;;;13.90;99.90;;;;;;5046943;28;20668;-38
2023/01/01 08:46:45;;;;;;;5.00;1.67;;;13.90;99.90;;;;;;5050117;28;20214;-40
2023/01/01 08:49:11;;;;;;;3.67;1.90;;;13.90;99.90;;;;;;5049472;28;20559;-40
2023/01/01 08:51:37;;;;;;;3.87;1.87;;;13.80;99.90;;;;;;5050828;28;20178;-39
2023/01/01 08:54:03;;;;;;;5.50;2.30;;;13.90;99.90;;;;;;5050383;28;20174;-37
2023/01/01 08:56:28;;;;;;;2.90;2.07;;;13.90;99.90;;;;;;5049711;28;20213;-38
2023/01/01 08:58:54;;;;;;;4.37;2.30;;;13.90;99.90;;;;;;5050762;28;20890;-38
2023/01/01 09:01:20;;;;;;;4.50;1.90;;;13.90;99.90;;;;;;5050925;28;20212;-38
2023/01/01 09:03:47;;;;;;;2.70;1.80;;;13.90;99.90;;;;;;5049697;28;20178;-37
2023/01/01 09:06:13;;;;;;;3.60;2.00;;;13.90;99.90;;;;;;5050743;28;20416;-41
2023/01/01 09:08:39;;;;;;;5.70;2.30;;;13.90;99.90;;;;;;5050263;28;20818;-39
2023/01/01 09:11:05;;;;;;;3.40;2.17;;;13.90;99.90;;;;;;5050459;28;20417;-40
2023/01/01 09:13:31;;;;;;;8.33;2.57;;;13.90;99.90;;;;;;5049938;28;20186;-38
2023/01/01 09:15:57;;;;;;;8.67;2.30;;;13.90;99.90;;;;;;5049081;28;20420;-40
2023/01/01 09:18:23;;;;;;;4.27;2.20;;;13.90;99.90;;;;;;5050307;28;20440;-39
2023/01/01 09:20:49;;;;;;;4.63;2.07;;;13.90;99.90;;;;;;5049569;28;20424;-38
2023/01/01 09:23:14;;;;;;;5.80;2.50;;;13.90;99.90;;;;;;5049303;28;21036;-40
2023/01/01 09:25:40;;;;;;;2.70;1.80;;;13.90;99.90;;;;;;5049206;28;20192;-35
2023/01/01 09:28:10;;;;;;;5.37;2.30;;;13.90;99.90;;;;;;5043943;28;20687;-39
2023/01/01 09:30:35;;;;;;;4.70;1.93;;;13.90;99.90;;;;;;5048730;28;20186;-38
2023/01/01 09:33:02;;;;;;;10.33;2.40;;;14.00;99.90;;;;;;5049663;28;20512;-39
2023/01/01 09:35:29;;;;;;;3.97;2.17;;;14.00;99.90;;;;;;5049501;28;20193;-41
2023/01/01 09:37:55;;;;;;;7.10;2.30;;;14.00;99.90;;;;;;5050492;28;20507;-41
2023/01/01 09:40:43;;;;;;;4.93;1.80;;;14.00;99.90;;;;;;5049805;28;20903;-39
2023/01/01 09:43:37;;;;;;;3.90;1.53;;;14.00;99.90;;;;;;5049531;28;20415;-40
2023/01/01 09:46:05;;;;;;;3.00;1.80;;;14.00;99.90;;;;;;5049494;28;20462;-35
2023/01/01 09:48:32;;;;;;;3.83;1.90;;;14.00;99.90;;;;;;5049795;28;20551;-38
2023/01/01 09:51:01;;;;;;;4.60;2.03;;;14.10;99.90;;;;;;5046900;28;20443;-39
2023/01/01 09:53:49;;;;;;;3.87;1.97;;;14.10;99.90;;;;;;5049213;28;20420;-37
2023/01/01 09:56:25;;;;;;;5.13;2.23;;;14.10;99.90;;;;;;5042071;28;20433;-40
2023/01/01 09:58:51;;;;;;;4.97;2.23;;;14.10;99.90;;;;;;5049303;28;20514;-36
2023/01/01 10:01:28;;;;;;;3.60;2.20;;;14.10;99.90;;;;;;5049574;28;20409;-37
2023/01/01 10:04:03;;;;;;;5.03;2.10;;;14.10;99.90;;;;;;5048930;28;20396;-38
2023/01/01 10:06:37;;;;;;;5.30;2.37;;;14.10;99.90;;;;;;5037280;28;20418;-39
2023/01/01 10:09:27;;;;;;;4.67;2.10;;;14.10;99.90;;;;;;5049192;28;20411;-38
2023/01/01 10:12:06;;;;;;;4.23;2.40;;;14.10;99.90;;;;;;5049444;28;20691;-39
2023/01/01 10:14:40;;;;;;;5.00;2.00;;;14.20;99.90;;;;;;5048658;28;20406;-38
2023/01/01 10:17:16;;;;;;;4.73;1.90;;;14.20;99.90;;;;;;5049064;28;20424;-40
2023/01/01 10:19:49;;;;;;;4.90;2.20;;;14.10;99.90;;;;;;5048984;28;20499;-38
2023/01/01 10:22:26;;;;;;;7.57;2.97;;;14.20;99.90;;;;;;5042217;28;20955;-39
2023/01/01 10:24:57;;;;;;;5.37;1.67;;;14.20;99.90;;;;;;5042164;28;20419;-41
2023/01/01 10:27:33;;;;;;;9.43;2.30;;;14.20;99.90;;;;;;5049043;28;20452;-38
2023/01/01 10:30:02;;;;;;;4.97;1.90;;;14.20;99.90;;;;;;5042796;28;20517;-39
2023/01/01 10:32:34;;;;;;;4.60;2.50;;;14.20;99.90;;;;;;5041288;28;20421;-38
2023/01/01 10:35:12;;;;;;;4.60;2.13;;;14.20;99.90;;;;;;5041147;28;20654;-39
2023/01/01 10:37:38;;;;;;;5.90;2.47;;;14.20;99.90;;;;;;5042868;28;20420;-41
2023/01/01 10:40:18;;;;;;;4.20;1.90;;;14.10;99.90;;;;;;5039920;28;20409;-40
2023/01/01 10:42:49;;;;;;;4.67;1.80;;;14.10;99.90;;;;;;5043384;28;20418;-37
2023/01/01 10:45:18;;;;;;;4.20;2.10;;;14.20;99.90;;;;;;5039439;28;21009;-38
2023/01/01 10:48:11;;;;;;;3.87;2.27;;;14.20;99.90;;;;;;5028856;28;20456;-39
2023/01/01 10:50:47;;;;;;;4.03;1.77;;;14.20;99.90;;;;;;5028637;28;20485;-39
2023/01/01 10:53:38;;;;;;;3.50;1.90;;;14.20;99.90;;;;;;5034735;28;20631;-38
2023/01/01 10:56:16;;;;;;;5.77;2.00;;;14.20;99.90;;;;;;5033355;28;20449;-39
2023/01/01 10:58:49;;;;;;;5.80;2.10;;;14.20;99.90;;;;;;5046011;28;20462;-38
2023/01/01 11:01:21;;;;;;;3.07;1.57;;;14.20;99.90;;;;;;5045774;28;20833;-38
2023/01/01 11:03:56;;;;;;;4.60;1.60;;;14.20;99.90;;;;;;5033767;28;20527;-36
2023/01/01 11:06:36;;;;;;;3.27;1.70;;;14.20;99.90;;;;;;5037095;28;20518;-37
2023/01/01 11:09:22;;;;;;;7.63;2.57;;;14.20;99.90;;;;;;5030679;28;20429;-39
2023/01/01 11:12:00;;;;;;;3.00;1.70;;;14.20;99.90;;;;;;5045963;28;21102;-39
2023/01/01 11:14:30;;;;;;;3.67;2.47;;;14.20;99.90;;;;;;5037197;28;20432;-38
2023/01/01 11:16:57;;;;;;;7.40;2.10;;;14.20;99.90;;;;;;5047160;28;20436;-40
2023/01/01 11:19:28;;;;;;;2.70;2.10;;;14.20;99.90;;;;;;5044838;28;20925;-35
2023/01/01 11:21:54;;;;;;;3.60;2.03;;;14.20;99.90;;;;;;5039696;28;20451;-41
2023/01/01 11:24:29;;;;;;;2.90;1.67;;;14.20;99.90;;;;;;5040085;28;20436;-38
2023/01/01 11:27:21;;;;;;;4.63;1.93;;;14.10;99.90;;;;;;5040252;28;20210;-40
2023/01/01 11:29:47;;;;;;;4.07;1.90;;;14.10;99.90;;;;;;5029993;28;20453;-38
2023/01/01 11:32:21;;;;;;;3.50;1.70;;;14.10;99.90;;;;;;5045993;28;20963;-39
2023/01/01 11:34:55;;;;;;;3.87;1.93;;;14.20;99.90;;;;;;5037037;28;20523;-39
2023/01/01 11:37:40;;;;;;;2.30;1.47;;;14.20;99.90;;;;;;5046909;28;20580;-38
2023/01/01 11:40:18;;;;;;;2.87;1.57;;;14.20;99.90;;;;;;5035882;28;20839;-41
2023/01/01 11:43:04;;;;;;;3.07;1.70;;;14.20;99.90;;;;;;5038432;28;20446;-36
2023/01/01 11:45:39;;;;;;;7.33;2.10;;;14.20;99.90;;;;;;5042356;28;20437;-35
2023/01/01 11:48:15;;;;;;;7.83;2.20;;;14.20;99.90;;;;;;5041436;28;20746;-38
2023/01/01 11:50:51;;;;;;;4.80;2.23;;;14.20;99.90;;;;;;5044173;28;20441;-39
2023/01/01 11:53:23;;;;;;;7.03;2.50;;;14.20;99.90;;;;;;5040180;28;20575;-37
2023/01/01 11:55:54;;;;;;;5.37;2.03;;;14.20;99.90;;;;;;5034345;28;20459;-40
2023/01/01 11:58:42;;;;;;;2.60;1.77;;;14.20;99.90;;;;;;5040769;28;20468;-38
2023/01/01 12:01:18;;;;;;;3.60;1.90;;;14.20;99.90;;;;;;5044322;28;20444;-37
2023/01/01 12:03:48;;;;;;;3.73;2.10;;;14.20;99.90;;;;;;5042675;28;20452;-38
2023/01/01 12:06:29;;;;;;;6.03;1.80;;;14.20;99.90;;;;;;5045412;28;20448;-40
2023/01/01 12:09:33;;;;;;;6.27;1.80;;;14.30;99.90;;;;;;5048884;28;20468;-36
2023/01/01 12:12:22;;;;;;;6.20;1.90;;;14.30;99.90;;;;;;5043623;28;20450;-39
2023/01/01 12:15:13;;;;;;;2.73;1.70;;;14.20;99.90;;;;;;5047082;28;20432;-41
2023/01/01 12:17:43;;;;;;;6.20;2.13;;;14.20;99.90;;;;;;5043228;28;20546;-39
2023/01/01 12:20:27;;;;;;;4.43;2.23;;;14.20;99.90;;;;;;5039182;28;20436;-36
2023/01/01 12:22:57;;;;;;;5.30;2.70;;;14.20;99.90;;;;;;5041248;28;20918;-36
2023/01/01 12:25:30;;;;;;;3.10;1.83;;;14.20;99.90;;;;;;5046900;28;21012;-39
2023/01/01 12:28:28;;;;;;;6.63;2.60;;;14.20;99.90;;;;;;5050777;28;20495;-41
2023/01/01 12:31:12;;;;;;;6.60;2.23;;;14.30;99.90;;;;;;5046296;28;20484;-36
2023/01/01 12:33:57;;;;;;;6.50;2.23;;;14.30;99.90;;;;;;5046684;28;20448;-36
2023/01/01 12:36:49;;;;;;;5.13;1.97;;;14.30;99.90;;;;;;5050040;28;20450;-40
2023/01/01 12:39:39;;;;;;;3.50;1.73;;;14.30;99.90;;;;;;5049987;28;20456;-39
2023/01/01 12:42:44;;;;;;;5.17;1.77;;;14.30;99.90;;;;;;5039052;28;20468;-37
2023/01/01 12:45:51;;;;;;;4.80;1.90;;;14.30;99.90;;;;;;5042737;28;20459;-38
2023/01/01 12:48:52;;;;;;;7.50;2.17;;;14.20;99.90;;;;;;5039014;28;20506;-35
2023/01/01 12:51:29;;;;;;;8.53;1.93;;;14.20;99.90;;;;;;5021124;28;21006;-40
2023/01/01 12:54:08;;;;;;;6.10;1.93;;;14.20;99.90;;;;;;5039093;28;20444;-40
2023/01/01 12:56:48;;;;;;;6.63;1.90;;;14.30;99.90;;;;;;5039957;28;20440;-39
2023/01/01 12:59:25;;;;;;;5.23;2.23;;;14.20;99.90;;;;;;5039682;28;20862;-34
2023/01/01 13:01:56;;;;;;;5.63;3.00;;;14.20;99.90;;;;;;5045839;28;20448;-40
2023/01/01 13:04:22;;;;;;;3.50;1.83;;;14.20;99.90;;;;;;5040623;28;20492;-37
2023/01/01 13:06:56;;;;;;;6.47;2.30;;;14.20;99.90;;;;;;5045858;28;20448;-39
2023/01/01 13:09:28;;;;;;;4.67;2.13;;;14.20;99.90;;;;;;5044991;28;20444;-40